Laclede, Illinois
Current Conditions -  °F | °C
As of 10:15 AM on Thursday 29 Jan 2015 (Local Time) from K1H2 Reporting Station
Overcast Overcast  
Wind Chill: 28°   Ceiling: 1300
Heat Index: 38°   Visibility: 7mi
Dew Point: 31°   Wind: 20mph
Humidity: 76%   Direction: 270°W
Pressure: 30.04"   Gusts: 29mph
Location:  38.891°N, 88.6694°W
Report Text: K1H2 291615Z AUTO 27017G25KT 7SM OVC013 04/00 A3004 RMK AO2 T00351004
Loading
Personal Weather Stations






























Interactive Weather Map New forecast layout! Learn more

10-Day Weather Forecast

Advertisements
Track Severe Weather on mobile